Terminal Aerodrome Forecast
Issued by NWS Flagstaff, AZ

Home | Current Version | Previous Version | Text Only | Print | Product List | Glossary On
Versions: 1 2 3 4 5 6 7 8 9 10 11 12 13 14 15 16 17 18
502
FTUS45 KFGZ 271503 AAC
TAFINW
TAF AMD
KINW 271503Z 2715/2812 29006KT P6SM SCT060 BKN080
      TEMPO 2715/2717 5SM -SHRA
     FM272100 32008KT P6SM SCT050 BKN080
      TEMPO 2721/2724 VRB15G25KT 5SM -TSRA BKN050CB
     FM280200 VRB05KT P6SM SCT080=

USA.gov is the U.S. government's official web portal to all federal, state and local government web resources and services.